createdAt,value
2019-03-11T00:04:30.360Z,71.39
2019-03-11T00:09:35.592Z,71.68
2019-03-11T00:14:41.108Z,71.92
2019-03-11T00:19:46.201Z,71.94
2019-03-11T00:24:51.260Z,71.86
2019-03-11T00:29:56.320Z,71.78
2019-03-11T00:35:01.464Z,72.13
2019-03-11T00:40:14.655Z,71.85
2019-03-11T00:45:19.857Z,71.51
2019-03-11T00:50:24.945Z,71.76
2019-03-11T00:55:30.144Z,72.04
2019-03-11T01:00:37.823Z,72.10
2019-03-11T01:05:43.199Z,71.65
2019-03-11T01:10:48.401Z,71.79
2019-03-11T01:15:53.812Z,71.52
2019-03-11T01:20:59.629Z,71.20
2019-03-11T01:26:05.012Z,71.20
2019-03-11T01:31:10.145Z,71.05
2019-03-11T01:36:15.221Z,70.37
2019-03-11T01:41:20.374Z,69.68
2019-03-11T01:46:25.452Z,70.79
2019-03-11T01:51:31.771Z,72.29
2019-03-11T01:56:36.858Z,72.13
2019-03-11T02:01:41.990Z,72.08
2019-03-11T02:06:47.135Z,71.32
2019-03-11T02:11:52.267Z,71.19
2019-03-11T02:16:57.544Z,70.18
2019-03-11T02:22:02.673Z,69.94
2019-03-11T02:27:07.917Z,68.81
2019-03-11T02:32:13.054Z,68.73
2019-03-11T02:37:18.399Z,68.73
2019-03-11T02:42:23.512Z,68.74
2019-03-11T02:47:28.715Z,68.95
2019-03-11T02:52:33.920Z,67.72
2019-03-11T02:57:40.151Z,67.45
2019-03-11T03:02:55.730Z,67.00
2019-03-11T03:08:00.895Z,66.98
2019-03-11T03:13:06.240Z,67.17
2019-03-11T03:18:11.629Z,67.40
2019-03-11T03:23:16.747Z,67.23
2019-03-11T03:28:22.234Z,66.73
2019-03-11T03:33:27.293Z,67.23
2019-03-11T03:38:32.345Z,67.04
2019-03-11T03:43:38.522Z,66.85
2019-03-11T03:48:43.662Z,66.55
2019-03-11T03:53:49.306Z,65.31
2019-03-11T03:58:54.560Z,64.04
2019-03-11T04:03:59.770Z,63.51
2019-03-11T04:09:05.483Z,63.01
2019-03-11T04:14:11.312Z,62.89
2019-03-11T04:19:16.763Z,63.64
2019-03-11T04:24:21.942Z,62.63
2019-03-11T04:29:27.048Z,62.92
2019-03-11T04:34:32.504Z,62.47
2019-03-11T04:39:37.636Z,62.90
2019-03-11T04:44:42.672Z,63.15
2019-03-11T04:49:48.209Z,63.17
2019-03-11T04:54:53.396Z,62.79
2019-03-11T04:59:58.462Z,62.93
2019-03-11T05:05:04.026Z,62.83
2019-03-11T05:10:11.208Z,62.77
2019-03-11T05:15:16.431Z,62.88
2019-03-11T05:20:21.874Z,62.81
2019-03-11T05:25:26.981Z,62.48
2019-03-11T05:30:32.097Z,62.04
2019-03-11T05:35:37.145Z,61.98
2019-03-11T05:40:42.371Z,61.73
2019-03-11T05:45:47.833Z,61.48
2019-03-11T05:50:52.919Z,60.78
2019-03-11T05:55:58.163Z,60.00
2019-03-11T06:01:03.294Z,59.84
2019-03-11T06:06:08.316Z,59.42
2019-03-11T06:11:13.473Z,59.48
2019-03-11T06:16:18.572Z,59.26
2019-03-11T06:21:37.537Z,58.68
2019-03-11T06:26:42.724Z,59.04
2019-03-11T06:31:47.859Z,58.07
2019-03-11T06:36:52.968Z,58.05
2019-03-11T06:41:58.136Z,57.76
2019-03-11T06:47:03.268Z,56.89
2019-03-11T06:52:08.386Z,56.63
2019-03-11T06:57:13.607Z,56.61
2019-03-11T07:02:18.873Z,55.90
2019-03-11T07:07:24.023Z,55.58
2019-03-11T07:12:29.172Z,54.96
2019-03-11T07:17:34.324Z,55.39
2019-03-11T07:22:39.797Z,55.21
2019-03-11T07:27:45.035Z,55.42
2019-03-11T07:32:50.211Z,55.31
2019-03-11T07:37:55.418Z,55.34
2019-03-11T07:43:00.522Z,55.27
2019-03-11T07:48:05.865Z,54.61
2019-03-11T07:53:10.907Z,54.29
2019-03-11T07:58:17.103Z,54.15
2019-03-11T08:03:22.255Z,53.20
2019-03-11T08:08:27.300Z,53.30
2019-03-11T08:13:32.459Z,53.73
2019-03-11T08:18:37.839Z,53.53
2019-03-11T08:23:43.190Z,54.01
2019-03-11T08:28:49.534Z,53.55
2019-03-11T08:33:54.688Z,53.53
2019-03-11T08:38:59.852Z,51.85
2019-03-11T08:44:05.016Z,49.41
2019-03-11T08:49:10.359Z,49.81
2019-03-11T08:54:15.385Z,47.96
2019-03-11T08:59:20.552Z,46.08
2019-03-11T09:04:25.644Z,45.88
2019-03-11T09:09:31.718Z,44.83
2019-03-11T09:14:37.071Z,45.59
2019-03-11T09:19:42.135Z,42.18
2019-03-11T09:24:47.296Z,42.03
2019-03-11T09:29:52.354Z,42.92
2019-03-11T09:34:57.553Z,41.93
2019-03-11T09:40:02.660Z,42.29
2019-03-11T09:45:15.698Z,42.65
2019-03-11T09:50:20.992Z,41.04
2019-03-11T09:55:28.077Z,41.71
2019-03-11T10:00:34.940Z,41.63
2019-03-11T10:05:40.004Z,43.02
2019-03-11T10:10:45.159Z,43.42
2019-03-11T10:15:50.421Z,42.29
2019-03-11T10:20:56.542Z,41.23
2019-03-11T10:26:02.053Z,40.85
2019-03-11T10:31:07.267Z,39.97
2019-03-11T10:36:12.376Z,40.39
2019-03-11T10:41:17.555Z,40.09
2019-03-11T10:46:22.661Z,39.57
2019-03-11T10:51:27.757Z,38.67
2019-03-11T10:56:32.933Z,39.11
2019-03-11T11:01:38.042Z,39.13
2019-03-11T11:06:43.539Z,38.44
2019-03-11T11:11:48.690Z,39.03
2019-03-11T11:16:53.851Z,38.77
2019-03-11T11:21:58.946Z,38.40
2019-03-11T11:27:05.220Z,37.09
2019-03-11T11:32:10.615Z,36.57
2019-03-11T11:37:15.736Z,37.07
2019-03-11T11:42:20.787Z,37.90
2019-03-11T11:47:25.946Z,36.29
2019-03-11T11:52:31.228Z,36.59
2019-03-11T11:57:36.406Z,38.46
2019-03-11T12:02:41.547Z,39.96
2019-03-11T12:07:46.809Z,38.96
2019-03-11T12:12:51.986Z,39.89
2019-03-11T12:17:57.096Z,39.91
2019-03-11T12:23:02.244Z,40.04
2019-03-11T12:28:07.475Z,40.34
2019-03-11T12:33:12.596Z,40.20
2019-03-11T12:38:17.751Z,40.30
2019-03-11T12:43:23.047Z,40.57
2019-03-11T12:48:28.119Z,40.54
2019-03-11T12:53:33.295Z,40.35
2019-03-11T12:58:41.833Z,41.18
2019-03-11T13:03:45.365Z,42.12
2019-03-11T13:08:50.460Z,41.04
2019-03-11T13:13:55.593Z,41.27
2019-03-11T13:19:12.472Z,39.75
2019-03-11T13:24:08.025Z,40.03
2019-03-11T13:29:13.164Z,40.23
2019-03-11T13:34:18.274Z,40.97
2019-03-11T13:39:23.403Z,40.42
2019-03-11T13:44:28.635Z,39.80
2019-03-11T13:49:33.737Z,39.69
2019-03-11T13:54:38.801Z,39.02
2019-03-11T13:59:43.933Z,38.97
2019-03-11T14:04:49.021Z,39.44
2019-03-11T14:09:54.059Z,38.34
2019-03-11T14:14:59.122Z,38.08
2019-03-11T14:20:07.803Z,34.62
2019-03-11T14:25:14.129Z,33.38
2019-03-11T14:30:23.567Z,32.84
2019-03-11T14:35:28.723Z,33.06
2019-03-11T14:40:33.851Z,32.16
2019-03-11T14:45:38.956Z,32.32
2019-03-11T14:50:44.052Z,32.49
2019-03-11T14:55:49.107Z,31.48
2019-03-11T15:00:54.176Z,31.16
2019-03-11T15:05:59.225Z,33.25
2019-03-11T15:11:04.680Z,32.75
2019-03-11T15:16:09.711Z,32.31
2019-03-11T15:21:14.892Z,31.57
2019-03-11T15:26:25.014Z,31.23
2019-03-11T15:31:27.298Z,32.02
2019-03-11T15:36:33.741Z,32.66
2019-03-11T15:41:39.117Z,36.33
2019-03-11T15:46:44.221Z,39.12
2019-03-11T15:51:49.269Z,41.17
2019-03-11T15:56:54.407Z,42.39
2019-03-11T16:01:59.611Z,43.64
2019-03-11T16:07:04.820Z,43.64
2019-03-11T16:12:09.866Z,44.60
2019-03-11T16:17:15.063Z,45.70
2019-03-11T16:22:24.275Z,46.79
2019-03-11T16:27:27.897Z,47.67
2019-03-11T16:32:37.095Z,48.33
2019-03-11T16:37:40.082Z,48.98
2019-03-11T16:42:45.289Z,49.74
2019-03-11T16:47:50.465Z,50.18
2019-03-11T16:52:55.745Z,50.47
2019-03-11T16:58:01.008Z,51.15
2019-03-11T17:03:07.456Z,51.88
2019-03-11T17:08:12.904Z,52.20
2019-03-11T17:13:18.133Z,52.78
2019-03-11T17:18:23.557Z,52.97
2019-03-11T17:23:28.677Z,53.91
2019-03-11T17:28:34.024Z,54.42
2019-03-11T17:33:39.345Z,54.95
2019-03-11T17:38:44.587Z,55.53
2019-03-11T17:43:49.798Z,55.59
2019-03-11T17:48:59.036Z,56.51
2019-03-11T17:54:05.379Z,57.29
2019-03-11T17:59:10.574Z,57.38
2019-03-11T18:04:15.774Z,57.99
2019-03-11T18:09:21.062Z,58.35
2019-03-11T18:14:26.264Z,59.01
2019-03-11T18:19:31.524Z,59.40
2019-03-11T18:24:36.545Z,59.83
2019-03-11T18:29:41.735Z,60.14
2019-03-11T18:34:47.328Z,60.54
2019-03-11T18:39:52.400Z,61.33
2019-03-11T18:44:57.522Z,61.91
2019-03-11T18:50:02.715Z,62.52
2019-03-11T18:55:09.409Z,63.03
2019-03-11T19:00:17.841Z,63.53
2019-03-11T19:05:24.505Z,63.93
2019-03-11T19:10:29.835Z,64.29
2019-03-11T19:15:34.942Z,64.76
2019-03-11T19:20:40.088Z,65.22
2019-03-11T19:25:45.235Z,65.58
2019-03-11T19:30:51.325Z,65.92
2019-03-11T19:35:56.591Z,66.26
2019-03-11T19:41:01.811Z,66.62
2019-03-11T19:46:07.486Z,66.76
2019-03-11T19:51:12.738Z,66.94
2019-03-11T19:56:18.032Z,67.34
2019-03-11T20:01:23.381Z,67.59
2019-03-11T20:06:28.717Z,67.88
2019-03-11T20:11:34.388Z,68.08
2019-03-11T20:16:39.442Z,68.40
2019-03-11T20:21:44.964Z,68.58
2019-03-11T20:26:50.363Z,68.91
2019-03-11T20:31:55.473Z,69.18
2019-03-11T20:37:00.977Z,69.17
2019-03-11T20:42:06.253Z,69.58
2019-03-11T20:47:11.901Z,69.77
2019-03-11T20:52:17.293Z,70.10
2019-03-11T20:57:22.425Z,70.26
2019-03-11T21:02:27.641Z,70.39
2019-03-11T21:07:32.751Z,70.52
2019-03-11T21:12:37.962Z,70.23
2019-03-11T21:17:43.103Z,69.53
2019-03-11T21:22:48.359Z,69.42
2019-03-11T21:27:53.917Z,67.66
2019-03-11T21:32:59.245Z,67.55
2019-03-11T21:38:05.414Z,73.59
2019-03-11T21:43:10.462Z,75.09
2019-03-11T21:48:15.762Z,75.33
2019-03-11T21:53:21.007Z,74.97
2019-03-11T21:58:26.412Z,74.68
2019-03-11T22:03:31.526Z,74.40
2019-03-11T22:08:36.724Z,74.74
2019-03-11T22:13:41.918Z,74.33
2019-03-11T22:18:47.136Z,74.08
2019-03-11T22:23:53.775Z,74.12
2019-03-11T22:28:58.931Z,73.97
2019-03-11T22:34:04.841Z,73.16
2019-03-11T22:39:10.192Z,72.24
2019-03-11T22:44:15.305Z,71.71
2019-03-11T22:49:20.473Z,71.20
2019-03-11T22:54:25.577Z,70.20
2019-03-11T22:59:30.679Z,69.54
2019-03-11T23:04:35.801Z,68.96
2019-03-11T23:09:40.856Z,68.61
2019-03-11T23:14:46.422Z,67.28
2019-03-11T23:19:51.520Z,67.00
2019-03-11T23:24:56.553Z,67.00
2019-03-11T23:30:01.748Z,66.24
2019-03-11T23:35:07.634Z,65.58
2019-03-11T23:40:13.271Z,64.87
2019-03-11T23:45:18.320Z,64.24
2019-03-11T23:50:23.461Z,63.72
2019-03-11T23:55:29.674Z,62.89
